This is the latest recevied weather packets stored in our database for station/object DB0LS-15. If no packets are shown the sender has not sent any weather packets the latest 10 day(s).
| Time | Temp. | Humidity | Pressure | Rain* | Wind** | Luminosity | Snow |
|---|---|---|---|---|---|---|---|
| 1777857915 | 17.22° C | 54% | 994 hPa | 0 mm | - | - | - |
| 1777857371 | 17.22° C | 54% | 993.8 hPa | 0 mm | - | - | - |
| 1777856767 | 17.22° C | 53% | 993.7 hPa | 0 mm | - | - | - |
| 1777856164 | 17.78° C | 53% | 993.7 hPa | 0 mm | - | - | - |
| 1777855560 | 17.78° C | 52% | 993.7 hPa | 0 mm | - | - | - |
| 1777854956 | 18.33° C | 51% | 993.4 hPa | 0 mm | - | - | - |
| 1777854352 | 18.33° C | 52% | 993.3 hPa | 0 mm | - | - | - |
| 1777853749 | 18.33° C | 52% | 993.4 hPa | 0 mm | - | - | - |
| 1777853145 | 18.33° C | 51% | 993.4 hPa | 0 mm | - | - | - |
| 1777852541 | 18.33° C | 50% | 993.4 hPa | 0 mm | - | - | - |
| 1777851938 | 18.33° C | 50% | 993.3 hPa | 0 mm | - | - | - |
| 1777851334 | 18.89° C | 49% | 993.2 hPa | 0 mm | - | - | - |
| 1777850730 | 18.89° C | 48% | 993.1 hPa | 0 mm | - | - | - |
| 1777850126 | 18.33° C | 49% | 993.2 hPa | 0 mm | - | - | - |
| 1777849522 | 17.78° C | 53% | 993.1 hPa | 0 mm | - | - | - |
| 1777848918 | 17.78° C | 52% | 993.1 hPa | 0 mm | - | - | - |
| 1777848375 | 18.33° C | 50% | 993.3 hPa | 0 mm | - | - | - |
| 1777847771 | 19.44° C | 46% | 993 hPa | 0 mm | - | - | - |
| 1777847167 | 19.44° C | 45% | 992.8 hPa | 0 mm | - | - | - |
| 1777846564 | 19.44° C | 45% | 992.7 hPa | 0 mm | - | - | - |
| 1777845960 | 19.44° C | 45% | 992.6 hPa | 0 mm | - | - | - |
| 1777845356 | 19.44° C | 45% | 992.7 hPa | 0 mm | - | - | - |
| 1777844752 | 19.44° C | 44% | 992.8 hPa | 0 mm | - | - | - |
| 1777844149 | 19.44° C | 44% | 992.8 hPa | 0 mm | - | - | - |
| 1777843545 | 20° C | 43% | 992.6 hPa | 0 mm | - | - | - |
* Rain latest hour (hover to see other rain measurements)
** Current wind speed in m/s (hover to see current wind gust speed)